sensor_id;sensor_type;location;lat;lon;timestamp;pressure;altitude;pressure_sealevel;temperature;humidity
64189;BME280;50493;50.970;10.082;2022-09-09T00:00:53;98741.06;;;16.55;59.21
64189;BME280;50493;50.970;10.082;2022-09-09T00:03:22;98742.75;;;16.56;59.21
64189;BME280;50493;50.970;10.082;2022-09-09T00:05:58;98739.53;;;16.50;59.17
64189;BME280;50493;50.970;10.082;2022-09-09T00:08:33;98741.41;;;16.48;59.30
64189;BME280;50493;50.970;10.082;2022-09-09T00:11:05;98737.06;;;16.47;59.50
64189;BME280;50493;50.970;10.082;2022-09-09T00:13:34;98738.19;;;16.43;59.49
64189;BME280;50493;50.970;10.082;2022-09-09T00:16:04;98738.19;;;16.43;59.29
64189;BME280;50493;50.970;10.082;2022-09-09T00:18:49;98739.28;;;16.39;59.34
64189;BME280;50493;50.970;10.082;2022-09-09T00:21:17;98734.72;;;16.27;59.77
64189;BME280;50493;50.970;10.082;2022-09-09T00:23:48;98735.63;;;16.26;59.71
64189;BME280;50493;50.970;10.082;2022-09-09T00:26:20;98737.16;;;16.30;59.53
64189;BME280;50493;50.970;10.082;2022-09-09T00:28:52;98738.69;;;16.34;59.31
64189;BME280;50493;50.970;10.082;2022-09-09T00:31:23;98734.84;;;16.24;59.70
64189;BME280;50493;50.970;10.082;2022-09-09T00:33:50;98734.25;;;16.18;59.60
64189;BME280;50493;50.970;10.082;2022-09-09T00:36:21;98729.25;;;16.14;59.82
64189;BME280;50493;50.970;10.082;2022-09-09T00:38:52;98738.88;;;16.15;59.81
64189;BME280;50493;50.970;10.082;2022-09-09T00:41:24;98735.31;;;16.16;59.31
64189;BME280;50493;50.970;10.082;2022-09-09T00:43:57;98740.72;;;16.13;59.37
64189;BME280;50493;50.970;10.082;2022-09-09T00:46:50;98732.72;;;16.14;59.35
64189;BME280;50493;50.970;10.082;2022-09-09T00:49:30;98734.00;;;16.07;59.37
64189;BME280;50493;50.970;10.082;2022-09-09T00:52:10;98739.09;;;16.10;59.18
64189;BME280;50493;50.970;10.082;2022-09-09T00:54:48;98738.19;;;16.11;59.26
64189;BME280;50493;50.970;10.082;2022-09-09T00:57:25;98734.63;;;16.12;58.84
64189;BME280;50493;50.970;10.082;2022-09-09T01:00:14;98732.16;;;16.09;58.89
64189;BME280;50493;50.970;10.082;2022-09-09T01:02:46;98730.03;;;16.00;59.19
64189;BME280;50493;50.970;10.082;2022-09-09T01:05:20;98730.03;;;16.00;59.01
64189;BME280;50493;50.970;10.082;2022-09-09T01:07:48;98744.13;;;15.99;59.10
64189;BME280;50493;50.970;10.082;2022-09-09T01:10:23;98736.13;;;16.00;59.02
64189;BME280;50493;50.970;10.082;2022-09-09T01:12:52;98738.25;;;15.94;58.98
64189;BME280;50493;50.970;10.082;2022-09-09T01:15:24;98738.69;;;16.02;58.67
64189;BME280;50493;50.970;10.082;2022-09-09T01:17:55;98733.75;;;15.96;58.77
64189;BME280;50493;50.970;10.082;2022-09-09T01:20:26;98741.56;;;15.97;58.62
64189;BME280;50493;50.970;10.082;2022-09-09T01:23:11;98736.97;;;16.01;58.31
64189;BME280;50493;50.970;10.082;2022-09-09T01:26:12;98727.47;;;15.98;58.28
64189;BME280;50493;50.970;10.082;2022-09-09T01:28:40;98727.28;;;16.01;58.43
64189;BME280;50493;50.970;10.082;2022-09-09T01:31:09;98722.19;;;15.98;58.19
64189;BME280;50493;50.970;10.082;2022-09-09T01:33:36;98731.88;;;15.98;58.18
64189;BME280;50493;50.970;10.082;2022-09-09T01:36:06;98726.44;;;16.01;57.90
64189;BME280;50493;50.970;10.082;2022-09-09T01:38:34;98728.66;;;16.09;57.65
64189;BME280;50493;50.970;10.082;2022-09-09T01:41:01;98736.97;;;16.01;57.92
64189;BME280;50493;50.970;10.082;2022-09-09T01:43:28;98735.38;;;16.14;57.34
64189;BME280;50493;50.970;10.082;2022-09-09T01:45:59;98736.16;;;16.16;57.19
64189;BME280;50493;50.970;10.082;2022-09-09T01:48:25;98738.19;;;16.11;57.46
64189;BME280;50493;50.970;10.082;2022-09-09T01:50:51;98738.53;;;16.05;57.81
64189;BME280;50493;50.970;10.082;2022-09-09T01:53:18;98734.00;;;16.07;57.38
64189;BME280;50493;50.970;10.082;2022-09-09T01:55:50;98732.81;;;16.13;57.30
64189;BME280;50493;50.970;10.082;2022-09-09T01:58:27;98725.25;;;16.07;57.20
64189;BME280;50493;50.970;10.082;2022-09-09T02:01:01;98729.53;;;16.09;57.17
64189;BME280;50493;50.970;10.082;2022-09-09T02:03:28;98732.91;;;16.11;57.00
64189;BME280;50493;50.970;10.082;2022-09-09T02:06:00;98736.81;;;16.04;57.40
64189;BME280;50493;50.970;10.082;2022-09-09T02:08:37;98727.81;;;16.08;57.22
64189;BME280;50493;50.970;10.082;2022-09-09T02:11:07;98730.25;;;15.95;57.52
64189;BME280;50493;50.970;10.082;2022-09-09T02:13:36;98731.44;;;15.90;57.58
64189;BME280;50493;50.970;10.082;2022-09-09T02:16:07;98734.53;;;15.80;57.92
64189;BME280;50493;50.970;10.082;2022-09-09T02:18:37;98740.31;;;15.87;57.52
64189;BME280;50493;50.970;10.082;2022-09-09T02:21:06;98743.78;;;15.89;57.35
64189;BME280;50493;50.970;10.082;2022-09-09T02:23:33;98743.59;;;15.92;57.14
64189;BME280;50493;50.970;10.082;2022-09-09T02:26:00;98741.19;;;15.88;57.43
64189;BME280;50493;50.970;10.082;2022-09-09T02:28:28;98750.34;;;15.80;57.49
64189;BME280;50493;50.970;10.082;2022-09-09T02:30:55;98743.06;;;15.85;57.44
64189;BME280;50493;50.970;10.082;2022-09-09T02:33:24;98751.22;;;15.81;57.57
64189;BME280;50493;50.970;10.082;2022-09-09T02:35:52;98742.75;;;15.92;57.03
64189;BME280;50493;50.970;10.082;2022-09-09T02:38:21;98742.75;;;15.92;57.17
64189;BME280;50493;50.970;10.082;2022-09-09T02:40:49;98746.34;;;16.07;56.44
64189;BME280;50493;50.970;10.082;2022-09-09T02:43:15;98741.22;;;16.04;56.55
64189;BME280;50493;50.970;10.082;2022-09-09T02:45:49;98743.19;;;16.00;56.46
64189;BME280;50493;50.970;10.082;2022-09-09T02:48:28;98737.16;;;15.98;56.75
64189;BME280;50493;50.970;10.082;2022-09-09T02:51:01;98734.34;;;16.01;56.38
64189;BME280;50493;50.970;10.082;2022-09-09T02:53:37;98738.25;;;15.94;56.61
64189;BME280;50493;50.970;10.082;2022-09-09T02:56:09;98735.81;;;16.07;56.09
64189;BME280;50493;50.970;10.082;2022-09-09T02:58:39;98729.53;;;16.09;55.96
64189;BME280;50493;50.970;10.082;2022-09-09T03:01:05;98732.72;;;16.14;55.82
64189;BME280;50493;50.970;10.082;2022-09-09T03:03:32;98729.84;;;16.19;55.66
64189;BME280;50493;50.970;10.082;2022-09-09T03:05:58;98738.00;;;16.14;55.59
64189;BME280;50493;50.970;10.082;2022-09-09T03:08:23;98731.47;;;16.22;55.28
64189;BME280;50493;50.970;10.082;2022-09-09T03:10:49;98733.84;;;16.26;55.22
64189;BME280;50493;50.970;10.082;2022-09-09T03:13:14;98734.44;;;16.15;55.58
64189;BME280;50493;50.970;10.082;2022-09-09T03:15:40;98733.31;;;16.04;56.05
64189;BME280;50493;50.970;10.082;2022-09-09T03:18:06;98730.97;;;15.81;56.75
64189;BME280;50493;50.970;10.082;2022-09-09T03:20:33;98733.91;;;15.93;56.35
64189;BME280;50493;50.970;10.082;2022-09-09T03:22:59;98723.53;;;15.90;56.29
64189;BME280;50493;50.970;10.082;2022-09-09T03:25:25;98726.94;;;15.92;56.24
64189;BME280;50493;50.970;10.082;2022-09-09T03:27:52;98724.59;;;15.85;56.33
64189;BME280;50493;50.970;10.082;2022-09-09T03:30:19;98722.69;;;15.89;56.18
64189;BME280;50493;50.970;10.082;2022-09-09T03:32:45;98719.34;;;15.85;56.38
64189;BME280;50493;50.970;10.082;2022-09-09T03:35:10;98720.69;;;15.77;56.77
64189;BME280;50493;50.970;10.082;2022-09-09T03:37:37;98729.88;;;15.85;56.34
64189;BME280;50493;50.970;10.082;2022-09-09T03:40:04;98720.00;;;15.73;56.50
64189;BME280;50493;50.970;10.082;2022-09-09T03:42:31;98724.47;;;15.55;57.36
64189;BME280;50493;50.970;10.082;2022-09-09T03:44:56;98723.28;;;15.61;57.27
64189;BME280;50493;50.970;10.082;2022-09-09T03:47:23;98725.94;;;15.61;56.97
64189;BME280;50493;50.970;10.082;2022-09-09T03:49:48;98720.97;;;15.55;57.23
64189;BME280;50493;50.970;10.082;2022-09-09T03:52:13;98721.41;;;15.47;57.57
64189;BME280;50493;50.970;10.082;2022-09-09T03:54:40;98725.00;;;15.62;56.95
64189;BME280;50493;50.970;10.082;2022-09-09T03:57:08;98725.41;;;15.54;56.97
64189;BME280;50493;50.970;10.082;2022-09-09T03:59:33;98725.31;;;15.56;56.97
64189;BME280;50493;50.970;10.082;2022-09-09T04:02:00;98719.78;;;15.44;57.51
64189;BME280;50493;50.970;10.082;2022-09-09T04:04:25;98723.25;;;15.45;57.27
64189;BME280;50493;50.970;10.082;2022-09-09T04:06:51;98711.00;;;15.44;57.19
64189;BME280;50493;50.970;10.082;2022-09-09T04:09:16;98712.09;;;15.40;57.41
64189;BME280;50493;50.970;10.082;2022-09-09T04:11:43;98723.16;;;15.46;57.08
64189;BME280;50493;50.970;10.082;2022-09-09T04:14:08;98720.25;;;15.35;57.20
64189;BME280;50493;50.970;10.082;2022-09-09T04:16:34;98727.66;;;15.44;57.00
64189;BME280;50493;50.970;10.082;2022-09-09T04:19:02;98716.38;;;15.25;57.72
64189;BME280;50493;50.970;10.082;2022-09-09T04:21:29;98719.09;;;15.23;57.81
64189;BME280;50493;50.970;10.082;2022-09-09T04:23:54;98729.03;;;15.51;56.75
64189;BME280;50493;50.970;10.082;2022-09-09T04:26:20;98728.16;;;15.35;57.17
64189;BME280;50493;50.970;10.082;2022-09-09T04:28:47;98732.94;;;15.44;56.88
64189;BME280;50493;50.970;10.082;2022-09-09T04:31:16;98730.53;;;15.40;56.73
64189;BME280;50493;50.970;10.082;2022-09-09T04:33:42;98720.81;;;15.24;57.41
64189;BME280;50493;50.970;10.082;2022-09-09T04:36:08;98722.88;;;15.35;56.88
64189;BME280;50493;50.970;10.082;2022-09-09T04:38:33;98719.09;;;15.23;57.28
64189;BME280;50493;50.970;10.082;2022-09-09T04:40:59;98721.72;;;15.23;57.25
64189;BME280;50493;50.970;10.082;2022-09-09T04:43:24;98722.72;;;15.21;57.34
64189;BME280;50493;50.970;10.082;2022-09-09T04:45:54;98728.44;;;15.29;56.91
64189;BME280;50493;50.970;10.082;2022-09-09T04:48:19;98730.78;;;15.17;57.26
64189;BME280;50493;50.970;10.082;2022-09-09T04:50:54;98734.72;;;15.26;56.94
64189;BME280;50493;50.970;10.082;2022-09-09T04:53:19;98723.19;;;15.29;56.83
64189;BME280;50493;50.970;10.082;2022-09-09T04:55:44;98727.91;;;15.22;56.98
64189;BME280;50493;50.970;10.082;2022-09-09T04:58:10;98720.25;;;15.17;56.99
64189;BME280;50493;50.970;10.082;2022-09-09T05:00:37;98721.88;;;15.20;56.91
64189;BME280;50493;50.970;10.082;2022-09-09T05:03:04;98723.13;;;15.13;57.04
64189;BME280;50493;50.970;10.082;2022-09-09T05:05:30;98727.25;;;15.18;56.70
64189;BME280;50493;50.970;10.082;2022-09-09T05:08:00;98732.41;;;15.20;56.48
64189;BME280;50493;50.970;10.082;2022-09-09T05:10:27;98740.16;;;15.23;56.56
64189;BME280;50493;50.970;10.082;2022-09-09T05:12:52;98737.13;;;15.31;57.86
64189;BME280;50493;50.970;10.082;2022-09-09T05:15:18;98745.03;;;15.31;57.50
64189;BME280;50493;50.970;10.082;2022-09-09T05:17:45;98726.13;;;15.40;56.64
64189;BME280;50493;50.970;10.082;2022-09-09T05:20:12;98735.44;;;15.30;56.65
64189;BME280;50493;50.970;10.082;2022-09-09T05:22:37;98731.72;;;15.16;57.01
64189;BME280;50493;50.970;10.082;2022-09-09T05:25:03;98737.16;;;15.13;56.88
64189;BME280;50493;50.970;10.082;2022-09-09T05:27:29;98738.13;;;15.28;56.20
64189;BME280;50493;50.970;10.082;2022-09-09T05:29:56;98735.44;;;15.30;55.70
64189;BME280;50493;50.970;10.082;2022-09-09T05:32:22;98737.44;;;15.25;55.97
64189;BME280;50493;50.970;10.082;2022-09-09T05:34:48;98737.34;;;15.26;55.56
64189;BME280;50493;50.970;10.082;2022-09-09T05:37:14;98750.28;;;15.48;54.56
64189;BME280;50493;50.970;10.082;2022-09-09T05:39:41;98748.78;;;15.43;54.64
64189;BME280;50493;50.970;10.082;2022-09-09T05:42:06;98750.28;;;15.48;54.60
64189;BME280;50493;50.970;10.082;2022-09-09T05:44:32;98752.91;;;15.48;54.32
64189;BME280;50493;50.970;10.082;2022-09-09T05:46:57;98751.81;;;15.52;54.29
64189;BME280;50493;50.970;10.082;2022-09-09T05:49:23;98757.56;;;15.43;54.28
64189;BME280;50493;50.970;10.082;2022-09-09T05:51:48;98762.19;;;15.56;53.96
64189;BME280;50493;50.970;10.082;2022-09-09T05:54:16;98762.88;;;15.59;53.56
64189;BME280;50493;50.970;10.082;2022-09-09T05:56:42;98761.25;;;15.57;53.75
64189;BME280;50493;50.970;10.082;2022-09-09T05:59:08;98764.63;;;15.76;52.84
64189;BME280;50493;50.970;10.082;2022-09-09T06:01:35;98767.16;;;15.62;53.39
64189;BME280;50493;50.970;10.082;2022-09-09T06:04:01;98765.56;;;15.58;53.42
64189;BME280;50493;50.970;10.082;2022-09-09T06:06:30;98767.16;;;15.62;53.29
64189;BME280;50493;50.970;10.082;2022-09-09T06:08:56;98766.28;;;15.61;53.27
64189;BME280;50493;50.970;10.082;2022-09-09T06:11:28;98774.63;;;15.69;53.02
64189;BME280;50493;50.970;10.082;2022-09-09T06:13:56;98776.34;;;15.71;53.51
64189;BME280;50493;50.970;10.082;2022-09-09T06:16:23;98774.41;;;15.92;52.19
64189;BME280;50493;50.970;10.082;2022-09-09T06:18:49;98768.53;;;16.18;52.02
64189;BME280;50493;50.970;10.082;2022-09-09T06:21:17;98767.44;;;16.23;55.14
64189;BME280;50493;50.970;10.082;2022-09-09T06:23:43;98768.47;;;16.04;51.70
64189;BME280;50493;50.970;10.082;2022-09-09T06:26:13;98769.00;;;16.27;51.50
64189;BME280;50493;50.970;10.082;2022-09-09T06:28:40;98767.09;;;16.13;51.45
64189;BME280;50493;50.970;10.082;2022-09-09T06:31:09;98764.53;;;16.11;51.41
64189;BME280;50493;50.970;10.082;2022-09-09T06:33:36;98763.31;;;16.97;49.23
64189;BME280;50493;50.970;10.082;2022-09-09T06:36:05;98768.78;;;18.12;45.84
64189;BME280;50493;50.970;10.082;2022-09-09T06:38:30;98768.63;;;18.28;45.15
64189;BME280;50493;50.970;10.082;2022-09-09T06:40:57;98765.38;;;18.66;44.00
64189;BME280;50493;50.970;10.082;2022-09-09T06:43:23;98767.38;;;18.76;46.16
64189;BME280;50493;50.970;10.082;2022-09-09T06:45:54;98763.88;;;19.56;46.66
64189;BME280;50493;50.970;10.082;2022-09-09T06:48:21;98762.97;;;20.07;50.03
64189;BME280;50493;50.970;10.082;2022-09-09T06:50:46;98765.97;;;18.97;51.53
64189;BME280;50493;50.970;10.082;2022-09-09T06:53:12;98763.13;;;19.79;45.20
64189;BME280;50493;50.970;10.082;2022-09-09T06:55:37;98750.88;;;20.52;42.66
64189;BME280;50493;50.970;10.082;2022-09-09T06:58:07;98763.69;;;19.06;51.34
64189;BME280;50493;50.970;10.082;2022-09-09T07:00:33;98765.06;;;19.11;52.04
64189;BME280;50493;50.970;10.082;2022-09-09T07:03:00;98764.69;;;18.21;54.80
64189;BME280;50493;50.970;10.082;2022-09-09T07:05:25;98767.94;;;18.53;52.58
64189;BME280;50493;50.970;10.082;2022-09-09T07:07:51;98771.81;;;18.62;53.48
64189;BME280;50493;50.970;10.082;2022-09-09T07:10:17;98768.16;;;19.18;45.73
64189;BME280;50493;50.970;10.082;2022-09-09T07:12:42;98765.31;;;20.11;48.55
64189;BME280;50493;50.970;10.082;2022-09-09T07:15:09;98765.09;;;20.88;42.48
64189;BME280;50493;50.970;10.082;2022-09-09T07:17:34;98771.69;;;19.96;47.59
64189;BME280;50493;50.970;10.082;2022-09-09T07:20:02;98772.44;;;19.98;48.55
64189;BME280;50493;50.970;10.082;2022-09-09T07:22:29;98769.34;;;20.04;48.89
64189;BME280;50493;50.970;10.082;2022-09-09T07:24:54;98759.63;;;20.66;46.80
64189;BME280;50493;50.970;10.082;2022-09-09T07:27:19;98766.25;;;20.23;49.21
64189;BME280;50493;50.970;10.082;2022-09-09T07:29:45;98769.44;;;19.25;50.71
64189;BME280;50493;50.970;10.082;2022-09-09T07:32:10;98772.91;;;17.14;58.25
64189;BME280;50493;50.970;10.082;2022-09-09T07:34:36;98771.69;;;19.31;48.16
64189;BME280;50493;50.970;10.082;2022-09-09T07:37:03;98775.44;;;19.14;52.20
64189;BME280;50493;50.970;10.082;2022-09-09T07:39:28;98774.22;;;19.33;45.37
64189;BME280;50493;50.970;10.082;2022-09-09T07:41:53;98774.31;;;19.31;53.80
64189;BME280;50493;50.970;10.082;2022-09-09T07:44:24;98785.59;;;19.61;50.00
64189;BME280;50493;50.970;10.082;2022-09-09T07:46:50;98789.97;;;19.21;45.53
64189;BME280;50493;50.970;10.082;2022-09-09T07:49:15;98784.69;;;18.81;52.89
64189;BME280;50493;50.970;10.082;2022-09-09T07:51:42;98790.09;;;18.38;47.00
64189;BME280;50493;50.970;10.082;2022-09-09T07:54:11;98784.03;;;18.22;55.50
64189;BME280;50493;50.970;10.082;2022-09-09T07:56:38;98791.84;;;18.37;53.85
64189;BME280;50493;50.970;10.082;2022-09-09T07:59:04;98795.06;;;18.43;51.02
64189;BME280;50493;50.970;10.082;2022-09-09T08:01:33;98789.41;;;18.34;47.60
64189;BME280;50493;50.970;10.082;2022-09-09T08:04:00;98789.88;;;18.41;54.71
64189;BME280;50493;50.970;10.082;2022-09-09T08:06:27;98797.25;;;18.36;49.09
64189;BME280;50493;50.970;10.082;2022-09-09T08:08:53;98789.78;;;18.28;53.92
64189;BME280;50493;50.970;10.082;2022-09-09T08:11:23;98794.84;;;18.46;53.33
64189;BME280;50493;50.970;10.082;2022-09-09T08:13:50;98791.16;;;18.48;49.15
64189;BME280;50493;50.970;10.082;2022-09-09T08:16:18;98786.91;;;18.87;49.01
64189;BME280;50493;50.970;10.082;2022-09-09T08:18:46;98785.72;;;19.46;46.27
64189;BME280;50493;50.970;10.082;2022-09-09T08:21:14;98783.25;;;19.69;49.16
64189;BME280;50493;50.970;10.082;2022-09-09T08:23:40;98777.13;;;19.81;46.71
64189;BME280;50493;50.970;10.082;2022-09-09T08:26:09;98782.94;;;19.61;48.00
64189;BME280;50493;50.970;10.082;2022-09-09T08:28:36;98775.81;;;20.00;44.63
64189;BME280;50493;50.970;10.082;2022-09-09T08:31:11;98783.25;;;19.95;49.37
64189;BME280;50493;50.970;10.082;2022-09-09T08:33:37;98775.56;;;20.42;48.59
64189;BME280;50493;50.970;10.082;2022-09-09T08:36:04;98777.06;;;20.33;44.41
64189;BME280;50493;50.970;10.082;2022-09-09T08:38:29;98784.81;;;20.23;48.38
64189;BME280;50493;50.970;10.082;2022-09-09T08:40:58;98788.56;;;19.95;45.26
64189;BME280;50493;50.970;10.082;2022-09-09T08:43:30;98794.69;;;20.34;49.13
64189;BME280;50493;50.970;10.082;2022-09-09T08:46:04;98789.81;;;20.28;45.19
64189;BME280;50493;50.970;10.082;2022-09-09T08:48:42;98797.69;;;19.91;49.05
64189;BME280;50493;50.970;10.082;2022-09-09T08:51:11;98793.34;;;20.15;48.11
64189;BME280;50493;50.970;10.082;2022-09-09T08:53:42;98796.69;;;20.67;43.06
64189;BME280;50493;50.970;10.082;2022-09-09T08:56:11;98787.50;;;20.84;43.98
64189;BME280;50493;50.970;10.082;2022-09-09T08:58:43;98800.69;;;21.10;46.54
64189;BME280;50493;50.970;10.082;2022-09-09T09:01:40;98801.94;;;20.93;42.85
64189;BME280;50493;50.970;10.082;2022-09-09T09:04:14;98796.41;;;22.01;42.65
64189;BME280;50493;50.970;10.082;2022-09-09T09:06:51;98789.41;;;21.89;44.49
64189;BME280;50493;50.970;10.082;2022-09-09T09:09:24;98792.03;;;22.00;42.68
64189;BME280;50493;50.970;10.082;2022-09-09T09:11:53;98788.97;;;22.73;41.99
64189;BME280;50493;50.970;10.082;2022-09-09T09:14:21;98785.94;;;23.95;38.92
64189;BME280;50493;50.970;10.082;2022-09-09T09:16:53;98788.56;;;22.45;43.26
64189;BME280;50493;50.970;10.082;2022-09-09T09:19:20;98781.97;;;23.04;41.61
64189;BME280;50493;50.970;10.082;2022-09-09T09:21:51;98791.50;;;23.18;39.47
64189;BME280;50493;50.970;10.082;2022-09-09T09:24:21;98787.91;;;23.50;39.94
64189;BME280;50493;50.970;10.082;2022-09-09T09:26:48;98783.16;;;23.12;41.11
64189;BME280;50493;50.970;10.082;2022-09-09T09:29:16;98787.44;;;22.92;41.64
64189;BME280;50493;50.970;10.082;2022-09-09T09:31:44;98782.84;;;21.70;41.24
64189;BME280;50493;50.970;10.082;2022-09-09T09:34:14;98783.94;;;22.25;40.69
64189;BME280;50493;50.970;10.082;2022-09-09T09:36:41;98785.03;;;22.45;42.58
64189;BME280;50493;50.970;10.082;2022-09-09T09:39:09;98776.38;;;22.75;41.15
64189;BME280;50493;50.970;10.082;2022-09-09T09:41:38;98777.81;;;23.54;39.36
64189;BME280;50493;50.970;10.082;2022-09-09T09:44:04;98779.34;;;23.47;39.04
64189;BME280;50493;50.970;10.082;2022-09-09T09:46:31;98769.69;;;23.13;40.31
64189;BME280;50493;50.970;10.082;2022-09-09T09:48:58;98773.63;;;24.44;37.88
64189;BME280;50493;50.970;10.082;2022-09-09T09:51:26;98768.91;;;24.27;36.52
64189;BME280;50493;50.970;10.082;2022-09-09T09:53:51;98771.50;;;24.38;37.07
64189;BME280;50493;50.970;10.082;2022-09-09T09:56:26;98770.50;;;23.98;37.60
64189;BME280;50493;50.970;10.082;2022-09-09T09:58:54;98770.44;;;23.88;38.02
64189;BME280;50493;50.970;10.082;2022-09-09T10:01:21;98786.78;;;23.53;39.51
64189;BME280;50493;50.970;10.082;2022-09-09T10:03:51;98788.16;;;23.26;39.27
64189;BME280;50493;50.970;10.082;2022-09-09T10:06:17;98789.13;;;23.04;39.91
64189;BME280;50493;50.970;10.082;2022-09-09T10:08:46;98781.91;;;23.37;38.82
64189;BME280;50493;50.970;10.082;2022-09-09T10:11:30;98775.66;;;23.69;38.69
64189;BME280;50493;50.970;10.082;2022-09-09T10:14:04;98764.91;;;24.11;36.86
64189;BME280;50493;50.970;10.082;2022-09-09T10:16:44;98770.19;;;25.12;35.60
64189;BME280;50493;50.970;10.082;2022-09-09T10:19:15;98767.88;;;25.56;34.57
64189;BME280;50493;50.970;10.082;2022-09-09T10:21:51;98769.16;;;24.94;35.16
64189;BME280;50493;50.970;10.082;2022-09-09T10:27:43;98743.84;;;24.08;38.18
64189;BME280;50493;50.970;10.082;2022-09-09T10:30:17;98754.84;;;24.25;36.58
64189;BME280;50493;50.970;10.082;2022-09-09T10:32:48;98747.09;;;25.31;33.78
64189;BME280;50493;50.970;10.082;2022-09-09T10:35:34;98756.34;;;24.78;34.77
64189;BME280;50493;50.970;10.082;2022-09-09T10:38:11;98763.72;;;25.05;33.94
64189;BME280;50493;50.970;10.082;2022-09-09T10:40:44;98763.59;;;23.96;38.41
64189;BME280;50493;50.970;10.082;2022-09-09T10:43:24;98755.25;;;23.79;37.94
64189;BME280;50493;50.970;10.082;2022-09-09T10:45:59;98763.16;;;23.91;37.30
64189;BME280;50493;50.970;10.082;2022-09-09T10:48:34;98754.16;;;24.22;37.32
64189;BME280;50493;50.970;10.082;2022-09-09T10:51:14;98750.97;;;23.25;38.66
64189;BME280;50493;50.970;10.082;2022-09-09T10:53:51;98752.19;;;23.94;37.62
64189;BME280;50493;50.970;10.082;2022-09-09T10:56:20;98742.53;;;24.43;35.93
64189;BME280;50493;50.970;10.082;2022-09-09T10:58:50;98744.94;;;24.56;36.65
64189;BME280;50493;50.970;10.082;2022-09-09T11:01:22;98743.84;;;25.08;34.80
64189;BME280;50493;50.970;10.082;2022-09-09T11:03:52;98738.34;;;24.89;37.04
64189;BME280;50493;50.970;10.082;2022-09-09T11:06:25;98742.03;;;25.08;36.56
64189;BME280;50493;50.970;10.082;2022-09-09T11:08:55;98740.69;;;25.99;33.62
64189;BME280;50493;50.970;10.082;2022-09-09T11:11:27;98733.84;;;26.60;34.66
64189;BME280;50493;50.970;10.082;2022-09-09T11:14:01;98734.81;;;25.85;33.68
64189;BME280;50493;50.970;10.082;2022-09-09T11:16:30;98742.91;;;25.56;38.43
64189;BME280;50493;50.970;10.082;2022-09-09T11:19:02;98742.53;;;25.41;39.94
64189;BME280;50493;50.970;10.082;2022-09-09T11:21:33;98749.50;;;25.62;33.49
64189;BME280;50493;50.970;10.082;2022-09-09T11:24:02;98732.44;;;24.56;40.12
64189;BME280;50493;50.970;10.082;2022-09-09T11:26:33;98730.75;;;24.55;36.31
64189;BME280;50493;50.970;10.082;2022-09-09T11:29:21;98737.22;;;24.43;39.25
64189;BME280;50493;50.970;10.082;2022-09-09T11:32:00;98736.38;;;23.71;36.81
64189;BME280;50493;50.970;10.082;2022-09-09T11:34:39;98734.13;;;23.03;47.15
64189;BME280;50493;50.970;10.082;2022-09-09T11:37:15;98745.41;;;23.28;42.88
64189;BME280;50493;50.970;10.082;2022-09-09T11:39:59;98731.38;;;23.35;45.69
64189;BME280;50493;50.970;10.082;2022-09-09T11:42:29;98735.44;;;23.51;39.51
64189;BME280;50493;50.970;10.082;2022-09-09T11:44:56;98740.88;;;23.49;44.55
64189;BME280;50493;50.970;10.082;2022-09-09T11:47:24;98754.09;;;23.30;38.74
64189;BME280;50493;50.970;10.082;2022-09-09T11:49:54;98753.31;;;23.39;41.44
64189;BME280;50493;50.970;10.082;2022-09-09T11:52:23;98748.03;;;23.49;42.17
64189;BME280;50493;50.970;10.082;2022-09-09T11:54:51;98746.13;;;22.97;40.41
64189;BME280;50493;50.970;10.082;2022-09-09T11:57:24;98747.34;;;22.93;41.18
64189;BME280;50493;50.970;10.082;2022-09-09T11:59:51;98749.22;;;23.14;39.28
64189;BME280;50493;50.970;10.082;2022-09-09T12:02:24;98755.59;;;22.46;46.67
64189;BME280;50493;50.970;10.082;2022-09-09T12:04:56;98745.56;;;22.82;39.34
64189;BME280;50493;50.970;10.082;2022-09-09T12:07:31;98755.25;;;23.37;44.15
64189;BME280;50493;50.970;10.082;2022-09-09T12:09:59;98744.28;;;24.13;46.94
64189;BME280;50493;50.970;10.082;2022-09-09T12:12:31;98745.00;;;23.84;40.93
64189;BME280;50493;50.970;10.082;2022-09-09T12:15:17;98739.47;;;24.58;37.00
64189;BME280;50493;50.970;10.082;2022-09-09T12:17:48;98742.84;;;24.40;38.84
64189;BME280;50493;50.970;10.082;2022-09-09T12:20:17;98746.63;;;23.97;37.23
64189;BME280;50493;50.970;10.082;2022-09-09T12:22:51;98746.34;;;24.00;38.11
64189;BME280;50493;50.970;10.082;2022-09-09T12:25:23;98743.25;;;23.43;45.20
64189;BME280;50493;50.970;10.082;2022-09-09T12:28:03;98740.06;;;23.28;38.38
64189;BME280;50493;50.970;10.082;2022-09-09T12:30:34;98757.28;;;22.91;43.49
64189;BME280;50493;50.970;10.082;2022-09-09T12:33:09;98749.53;;;23.20;38.31
64189;BME280;50493;50.970;10.082;2022-09-09T12:35:35;98746.81;;;23.32;38.35
64189;BME280;50493;50.970;10.082;2022-09-09T12:38:05;98741.47;;;23.53;38.94
64189;BME280;50493;50.970;10.082;2022-09-09T12:40:33;98739.84;;;23.19;42.23
64189;BME280;50493;50.970;10.082;2022-09-09T12:43:00;98740.69;;;23.41;36.17
64189;BME280;50493;50.970;10.082;2022-09-09T12:45:29;98749.19;;;24.18;42.12
64189;BME280;50493;50.970;10.082;2022-09-09T12:47:57;98744.34;;;23.92;40.92
64189;BME280;50493;50.970;10.082;2022-09-09T12:50:29;98746.16;;;24.32;42.98
64189;BME280;50493;50.970;10.082;2022-09-09T12:52:57;98732.00;;;24.51;31.34
64189;BME280;50493;50.970;10.082;2022-09-09T12:55:28;98725.13;;;24.98;33.24
64189;BME280;50493;50.970;10.082;2022-09-09T12:57:56;98725.69;;;25.21;30.94
64189;BME280;50493;50.970;10.082;2022-09-09T13:00:24;98720.91;;;24.85;29.55
64189;BME280;50493;50.970;10.082;2022-09-09T13:02:52;98711.88;;;25.35;29.09
64189;BME280;50493;50.970;10.082;2022-09-09T13:05:21;98707.13;;;25.10;41.67